createdAt,value
2023-05-05T00:00:29.866Z,10.88
2023-05-05T00:01:02.424Z,10.85
2023-05-05T00:01:34.201Z,10.78
2023-05-05T00:02:05.890Z,10.80
2023-05-05T00:02:37.677Z,10.84
2023-05-05T00:03:09.522Z,10.85
2023-05-05T00:03:42.792Z,10.87
2023-05-05T00:04:14.624Z,10.85
2023-05-05T00:04:46.269Z,10.85
2023-05-05T00:05:18.031Z,10.87
2023-05-05T00:05:50.236Z,10.85
2023-05-05T00:06:21.867Z,10.85
2023-05-05T00:06:53.481Z,10.88
2023-05-05T00:07:25.142Z,10.85
2023-05-05T00:07:56.739Z,10.80
2023-05-05T00:08:28.721Z,10.81
2023-05-05T00:09:00.406Z,10.70
2023-05-05T00:09:32.050Z,10.72
2023-05-05T00:10:04.309Z,10.72
2023-05-05T00:10:36.634Z,10.74
2023-05-05T00:11:08.228Z,10.72
2023-05-05T00:11:39.883Z,10.78
2023-05-05T00:12:11.589Z,10.85
2023-05-05T00:12:43.234Z,10.88
2023-05-05T00:13:15.267Z,10.88
2023-05-05T00:13:47.181Z,10.87
2023-05-05T00:14:18.801Z,10.88
2023-05-05T00:14:50.442Z,10.90
2023-05-05T00:15:22.130Z,10.85
2023-05-05T00:15:53.988Z,10.82
2023-05-05T00:16:26.050Z,10.84
2023-05-05T00:16:57.774Z,10.85
2023-05-05T00:17:29.440Z,10.82
2023-05-05T00:18:01.050Z,10.84
2023-05-05T00:18:33.918Z,10.74
2023-05-05T00:19:05.999Z,10.74
2023-05-05T00:19:37.697Z,10.78
2023-05-05T00:20:10.011Z,10.78
2023-05-05T00:20:42.001Z,10.78
2023-05-05T00:21:13.610Z,10.77
2023-05-05T00:21:45.227Z,10.75
2023-05-05T00:22:17.001Z,10.81
2023-05-05T00:22:48.788Z,10.78
2023-05-05T00:23:21.126Z,10.78
2023-05-05T00:23:52.754Z,10.81
2023-05-05T00:24:24.417Z,10.81
2023-05-05T00:24:56.127Z,10.84
2023-05-05T00:25:27.942Z,10.82
2023-05-05T00:25:59.503Z,10.82
2023-05-05T00:26:31.022Z,10.75
2023-05-05T00:27:03.523Z,10.74
2023-05-05T00:27:35.156Z,10.78
2023-05-05T00:28:07.075Z,10.74
2023-05-05T00:28:38.717Z,10.75
2023-05-05T00:29:10.480Z,10.74
2023-05-05T00:29:42.099Z,10.72
2023-05-05T00:30:13.843Z,10.75
2023-05-05T00:30:45.544Z,10.74
2023-05-05T00:31:17.217Z,10.71
2023-05-05T00:31:52.075Z,10.65
2023-05-05T00:32:23.773Z,10.67
2023-05-05T00:32:55.685Z,10.68
2023-05-05T00:33:27.358Z,10.71
2023-05-05T00:33:58.968Z,10.68
2023-05-05T00:34:30.725Z,10.70
2023-05-05T00:35:02.324Z,10.65
2023-05-05T00:35:34.202Z,10.65
2023-05-05T00:36:06.060Z,10.70
2023-05-05T00:36:37.723Z,10.70
2023-05-05T00:37:09.341Z,10.72
2023-05-05T00:37:40.971Z,10.75
2023-05-05T00:38:12.699Z,10.77
2023-05-05T00:38:44.368Z,10.78
2023-05-05T00:39:16.416Z,10.70
2023-05-05T00:39:47.992Z,10.68
2023-05-05T00:40:19.781Z,10.65
2023-05-05T00:40:51.432Z,10.70
2023-05-05T00:41:23.194Z,10.72
2023-05-05T00:41:54.784Z,10.68
2023-05-05T00:42:26.795Z,10.68
2023-05-05T00:42:59.647Z,10.65
2023-05-05T00:43:31.371Z,10.61
2023-05-05T00:44:03.533Z,10.61
2023-05-05T00:44:39.325Z,10.50
2023-05-05T00:45:12.365Z,10.57
2023-05-05T00:45:47.715Z,10.51
2023-05-05T00:46:25.457Z,10.56
2023-05-05T00:46:57.143Z,10.54
2023-05-05T00:47:29.131Z,10.54
2023-05-05T00:48:01.615Z,10.57
2023-05-05T00:48:33.691Z,10.59
2023-05-05T00:49:05.498Z,10.63
2023-05-05T00:49:38.196Z,10.61
2023-05-05T00:50:10.873Z,10.59
2023-05-05T00:50:44.311Z,10.56
2023-05-05T00:51:16.980Z,10.50
2023-05-05T00:51:48.578Z,10.51
2023-05-05T00:52:20.306Z,10.50
2023-05-05T00:52:54.981Z,10.51
2023-05-05T00:53:27.502Z,10.46
2023-05-05T00:53:59.216Z,10.49
2023-05-05T00:54:31.045Z,10.49
2023-05-05T00:55:03.987Z,10.44
2023-05-05T00:55:36.736Z,10.47
2023-05-05T00:56:08.723Z,10.43
2023-05-05T00:56:40.507Z,10.46
2023-05-05T00:57:12.264Z,10.46
2023-05-05T00:57:44.556Z,10.49
2023-05-05T00:58:16.184Z,10.53
2023-05-05T00:58:48.162Z,10.49
2023-05-05T00:59:20.709Z,10.50
2023-05-05T00:59:53.141Z,10.59
2023-05-05T01:00:25.452Z,10.60
2023-05-05T01:00:57.040Z,10.63
2023-05-05T01:01:28.927Z,10.59
2023-05-05T01:02:00.605Z,10.65
2023-05-05T01:02:32.450Z,10.63
2023-05-05T01:03:05.655Z,10.59
2023-05-05T01:03:38.985Z,10.60
2023-05-05T01:04:10.692Z,10.60
2023-05-05T01:04:42.584Z,10.59
2023-05-05T01:05:16.206Z,10.63
2023-05-05T01:05:50.458Z,10.59
2023-05-05T01:06:46.282Z,10.61
2023-05-05T01:07:38.795Z,10.57
2023-05-05T01:08:35.050Z,10.57
2023-05-05T01:09:32.426Z,10.57
2023-05-05T01:10:20.619Z,10.56
2023-05-05T01:11:03.191Z,10.56
2023-05-05T01:11:37.708Z,10.64
2023-05-05T01:12:13.106Z,10.67
2023-05-05T01:12:53.638Z,10.72
2023-05-05T01:13:28.298Z,10.68
2023-05-05T01:14:20.685Z,10.63
2023-05-05T01:15:29.385Z,10.64
2023-05-05T01:16:04.646Z,10.65
2023-05-05T01:16:39.211Z,10.68
2023-05-05T01:17:39.731Z,10.71
2023-05-05T01:18:44.932Z,10.71
2023-05-05T01:19:53.716Z,10.75
2023-05-05T01:20:42.539Z,10.68
2023-05-05T01:21:23.552Z,10.64
2023-05-05T01:21:59.256Z,10.71
2023-05-05T01:22:39.588Z,10.78
2023-05-05T01:23:21.462Z,10.80
2023-05-05T01:24:14.726Z,10.80
2023-05-05T01:25:12.262Z,10.88
2023-05-05T01:26:07.505Z,10.88
2023-05-05T01:27:06.305Z,10.84
2023-05-05T01:27:56.094Z,10.72
2023-05-05T01:28:34.469Z,10.74
2023-05-05T01:29:24.520Z,10.72
2023-05-05T01:30:28.821Z,10.77
2023-05-05T01:31:03.287Z,10.70
2023-05-05T01:31:51.951Z,10.72
2023-05-05T01:32:28.476Z,10.74
2023-05-05T01:33:11.470Z,10.67
2023-05-05T01:34:10.053Z,10.65
2023-05-05T01:34:53.790Z,10.70
2023-05-05T01:35:40.491Z,10.68
2023-05-05T01:36:22.692Z,10.72
2023-05-05T01:37:15.615Z,10.77
2023-05-05T01:37:55.655Z,10.78
2023-05-05T01:38:34.868Z,10.84
2023-05-05T01:39:08.386Z,10.85
2023-05-05T01:39:42.830Z,10.85
2023-05-05T01:40:16.029Z,10.80
2023-05-05T01:40:59.431Z,10.81
2023-05-05T01:41:38.707Z,10.82
2023-05-05T01:42:15.187Z,10.87
2023-05-05T01:42:48.238Z,10.92
2023-05-05T01:43:23.394Z,10.91
2023-05-05T01:43:59.738Z,10.94
2023-05-05T01:44:34.780Z,10.94
2023-05-05T01:45:09.481Z,10.90
2023-05-05T01:45:43.689Z,10.81
2023-05-05T01:46:16.538Z,10.72
2023-05-05T01:46:49.563Z,10.71
2023-05-05T01:47:22.771Z,10.68
2023-05-05T01:47:56.413Z,10.70
2023-05-05T01:48:29.940Z,10.60
2023-05-05T01:49:01.965Z,10.64
2023-05-05T01:49:36.157Z,10.63
2023-05-05T01:50:09.635Z,10.64
2023-05-05T01:50:42.923Z,10.60
2023-05-05T01:51:17.613Z,10.61
2023-05-05T01:51:50.074Z,10.64
2023-05-05T01:52:23.691Z,10.53
2023-05-05T01:52:57.291Z,10.54
2023-05-05T01:53:29.628Z,10.60
2023-05-05T01:54:04.501Z,10.70
2023-05-05T01:54:38.280Z,10.77
2023-05-05T01:55:11.953Z,10.80
2023-05-05T01:55:44.176Z,10.75
2023-05-05T01:56:16.983Z,10.71
2023-05-05T01:56:49.266Z,10.78
2023-05-05T01:57:21.781Z,10.77
2023-05-05T01:57:56.092Z,10.70
2023-05-05T01:58:29.982Z,10.65
2023-05-05T01:59:02.609Z,10.61
2023-05-05T01:59:35.412Z,10.56
2023-05-05T02:00:09.819Z,10.60
2023-05-05T02:00:42.843Z,10.56
2023-05-05T02:01:15.751Z,10.53
2023-05-05T02:01:49.445Z,10.61
2023-05-05T02:02:22.454Z,10.64
2023-05-05T02:02:57.054Z,10.67
2023-05-05T02:03:31.485Z,10.71
2023-05-05T02:04:04.822Z,10.80
2023-05-05T02:04:43.543Z,10.82
2023-05-05T02:05:17.099Z,10.84
2023-05-05T02:05:50.106Z,10.78
2023-05-05T02:06:23.044Z,10.77
2023-05-05T02:06:56.519Z,10.75
2023-05-05T02:07:28.613Z,10.77
2023-05-05T02:08:00.463Z,10.77
2023-05-05T02:08:34.632Z,10.72
2023-05-05T02:09:11.753Z,10.70
2023-05-05T02:09:44.710Z,10.67
2023-05-05T02:10:16.832Z,10.81
2023-05-05T02:10:49.830Z,10.82
2023-05-05T02:11:21.862Z,10.87
2023-05-05T02:11:55.205Z,10.91
2023-05-05T02:12:30.009Z,10.88
2023-05-05T02:13:05.714Z,10.90
2023-05-05T02:13:39.344Z,10.84
2023-05-05T02:14:12.554Z,10.80
2023-05-05T02:14:44.782Z,10.77
2023-05-05T02:15:17.091Z,10.82
2023-05-05T02:15:50.786Z,10.80
2023-05-05T02:16:23.613Z,10.85
2023-05-05T02:16:58.488Z,10.87
2023-05-05T02:17:30.875Z,10.82
2023-05-05T02:18:06.238Z,10.87
2023-05-05T02:18:38.902Z,10.90
2023-05-05T02:19:12.343Z,11.00
2023-05-05T02:19:47.859Z,10.94
2023-05-05T02:20:20.637Z,10.85
2023-05-05T02:20:53.299Z,10.82
2023-05-05T02:21:24.919Z,10.81
2023-05-05T02:21:57.383Z,10.85
2023-05-05T02:22:29.071Z,10.88
2023-05-05T02:23:00.730Z,10.94
2023-05-05T02:23:32.443Z,11.01
2023-05-05T02:24:04.540Z,11.18
2023-05-05T02:24:36.324Z,11.14
2023-05-05T02:25:09.019Z,11.11
2023-05-05T02:25:43.333Z,11.07
2023-05-05T02:26:17.078Z,11.04
2023-05-05T02:26:51.968Z,11.04
2023-05-05T02:27:25.617Z,10.97
2023-05-05T02:28:00.854Z,10.84
2023-05-05T02:28:52.932Z,10.82
2023-05-05T02:29:52.140Z,10.81
2023-05-05T02:30:25.201Z,10.91
2023-05-05T02:30:59.522Z,10.94
2023-05-05T02:31:34.242Z,11.01
2023-05-05T02:32:10.171Z,11.04
2023-05-05T02:32:47.153Z,11.05
2023-05-05T02:33:22.860Z,11.01
2023-05-05T02:33:56.562Z,11.01
2023-05-05T02:34:32.780Z,10.88
2023-05-05T02:35:34.787Z,10.75
2023-05-05T02:36:19.178Z,11.04
2023-05-05T02:36:54.663Z,11.04
2023-05-05T02:37:29.848Z,11.15
2023-05-05T02:38:04.902Z,11.26
2023-05-05T02:38:40.606Z,11.40
2023-05-05T02:39:18.553Z,11.53
2023-05-05T02:40:08.679Z,11.62
2023-05-05T02:40:43.458Z,11.60
2023-05-05T02:41:18.933Z,11.60
2023-05-05T02:41:53.372Z,11.65
2023-05-05T02:42:29.896Z,11.67
2023-05-05T02:43:08.529Z,11.71
2023-05-05T02:43:42.099Z,11.70
2023-05-05T02:44:15.640Z,11.69
2023-05-05T02:44:48.076Z,11.67
2023-05-05T02:45:22.648Z,11.62
2023-05-05T02:45:54.257Z,11.62
2023-05-05T02:46:26.831Z,11.62
2023-05-05T02:46:58.672Z,11.60
2023-05-05T02:47:36.946Z,11.60
2023-05-05T02:48:10.634Z,11.65
2023-05-05T02:48:42.300Z,11.67
2023-05-05T02:49:15.541Z,11.70
2023-05-05T02:49:47.191Z,11.74
2023-05-05T02:50:18.867Z,11.71
2023-05-05T02:50:50.527Z,11.73
2023-05-05T02:51:22.211Z,11.70
2023-05-05T02:51:54.051Z,11.70
2023-05-05T02:52:25.698Z,11.66
2023-05-05T02:52:58.658Z,11.66
2023-05-05T02:53:30.592Z,11.66
2023-05-05T02:54:02.727Z,11.67
2023-05-05T02:54:34.395Z,11.71
2023-05-05T02:55:06.659Z,11.69
2023-05-05T02:55:52.051Z,11.73
2023-05-05T02:56:38.453Z,11.67
2023-05-05T02:57:15.351Z,11.66
2023-05-05T02:58:04.899Z,11.66
2023-05-05T02:58:48.038Z,11.50
2023-05-05T02:59:48.888Z,11.47
2023-05-05T03:00:30.720Z,11.38
2023-05-05T03:01:11.098Z,11.33
2023-05-05T03:01:42.701Z,11.30
2023-05-05T03:02:51.792Z,11.28
2023-05-05T03:03:30.622Z,11.23
2023-05-05T03:04:10.342Z,11.25
2023-05-05T03:04:56.967Z,11.18
2023-05-05T03:05:34.848Z,11.14
2023-05-05T03:06:19.638Z,11.15
2023-05-05T03:06:54.649Z,11.16
2023-05-05T03:07:31.149Z,11.11
2023-05-05T03:08:09.872Z,11.02
2023-05-05T03:08:49.557Z,11.01
2023-05-05T03:09:23.300Z,11.01
2023-05-05T03:10:08.738Z,10.98
2023-05-05T03:10:48.019Z,10.95
2023-05-05T03:11:26.203Z,10.90
2023-05-05T03:12:04.021Z,10.74
2023-05-05T03:12:46.668Z,10.71
2023-05-05T03:13:20.875Z,10.65
2023-05-05T03:14:01.389Z,10.65
2023-05-05T03:14:36.968Z,10.63
2023-05-05T03:15:10.328Z,10.60
2023-05-05T03:15:48.499Z,10.63
2023-05-05T03:16:23.291Z,10.46
2023-05-05T03:16:56.727Z,10.33
2023-05-05T03:18:03.996Z,10.24
2023-05-05T03:18:39.974Z,10.28
2023-05-05T03:19:13.137Z,10.26
2023-05-05T03:19:45.112Z,10.26
2023-05-05T03:20:16.894Z,10.32
2023-05-05T03:20:49.096Z,10.29
2023-05-05T03:21:21.641Z,10.28
2023-05-05T03:21:54.257Z,10.19
2023-05-05T03:22:27.747Z,10.19
2023-05-05T03:23:02.245Z,10.22
2023-05-05T03:23:34.690Z,10.17
2023-05-05T03:24:19.821Z,10.12
2023-05-05T03:24:51.566Z,10.17
2023-05-05T03:25:23.411Z,10.13
2023-05-05T03:25:55.039Z,10.09
2023-05-05T03:26:26.847Z,10.02
2023-05-05T03:26:58.516Z,9.96
2023-05-05T03:27:30.539Z,10.01
2023-05-05T03:28:02.159Z,9.93
2023-05-05T03:28:33.739Z,9.82
2023-05-05T03:29:06.904Z,9.89
2023-05-05T03:29:38.577Z,9.85
2023-05-05T03:30:10.881Z,9.85
2023-05-05T03:30:42.910Z,9.84
2023-05-05T03:31:15.162Z,9.91
2023-05-05T03:31:47.196Z,9.93
2023-05-05T03:32:18.925Z,9.92
2023-05-05T03:32:50.533Z,9.81
2023-05-05T03:33:22.170Z,9.81
2023-05-05T03:33:53.956Z,9.84
2023-05-05T03:34:25.566Z,9.78
2023-05-05T03:34:57.202Z,9.82
2023-05-05T03:35:28.896Z,9.88
2023-05-05T03:36:00.604Z,9.91
2023-05-05T03:36:32.437Z,9.92
2023-05-05T03:37:04.124Z,9.91
2023-05-05T03:37:35.894Z,9.93
2023-05-05T03:38:07.517Z,9.86
2023-05-05T03:38:39.079Z,9.89
2023-05-05T03:39:10.963Z,9.79
2023-05-05T03:39:42.573Z,9.75
2023-05-05T03:40:14.326Z,9.77
2023-05-05T03:40:45.972Z,9.78
2023-05-05T03:41:17.591Z,9.71
2023-05-05T03:41:49.302Z,9.68
2023-05-05T03:42:21.017Z,9.71
2023-05-05T03:42:52.661Z,9.68
2023-05-05T03:43:24.325Z,9.45
2023-05-05T03:43:56.040Z,9.40
2023-05-05T03:44:28.039Z,9.48
2023-05-05T03:44:59.612Z,9.50
2023-05-05T03:45:31.276Z,9.45
2023-05-05T03:46:02.917Z,9.50
2023-05-05T03:46:34.675Z,9.52
2023-05-05T03:47:06.352Z,9.55
2023-05-05T03:47:38.049Z,9.65
2023-05-05T03:48:10.113Z,9.58
2023-05-05T03:48:42.278Z,9.55
2023-05-05T03:49:16.766Z,9.61
2023-05-05T03:49:48.448Z,9.62
2023-05-05T03:50:20.088Z,9.58
2023-05-05T03:50:52.927Z,9.57
2023-05-05T03:51:25.065Z,9.62
2023-05-05T03:51:56.719Z,9.64
2023-05-05T03:52:28.352Z,9.64
2023-05-05T03:52:59.964Z,9.64
2023-05-05T03:53:31.541Z,9.61
2023-05-05T03:54:03.468Z,9.65
2023-05-05T03:54:35.050Z,9.68
2023-05-05T03:55:07.099Z,9.71
2023-05-05T03:55:38.659Z,9.72
2023-05-05T03:56:10.315Z,9.72
2023-05-05T03:56:42.018Z,9.77
2023-05-05T03:57:13.651Z,9.84
2023-05-05T03:57:46.096Z,9.85
2023-05-05T03:58:17.873Z,9.84
2023-05-05T03:58:49.453Z,9.82
2023-05-05T03:59:21.068Z,9.75
2023-05-05T03:59:53.887Z,9.82
2023-05-05T04:00:25.556Z,9.82
2023-05-05T04:00:57.439Z,9.81
2023-05-05T04:01:31.816Z,9.82
2023-05-05T04:02:03.499Z,9.81
2023-05-05T04:02:35.178Z,9.82
2023-05-05T04:03:07.000Z,9.82
2023-05-05T04:03:39.355Z,9.79
2023-05-05T04:04:11.497Z,9.79
2023-05-05T04:04:43.154Z,9.71
2023-05-05T04:05:14.892Z,9.58
2023-05-05T04:05:47.118Z,9.58
2023-05-05T04:06:18.797Z,9.52
2023-05-05T04:06:50.418Z,9.57
2023-05-05T04:07:23.725Z,9.67
2023-05-05T04:07:55.690Z,9.65
2023-05-05T04:08:27.346Z,9.59
2023-05-05T04:08:58.964Z,9.57
2023-05-05T04:09:30.591Z,9.61
2023-05-05T04:10:02.297Z,9.61
2023-05-05T04:10:34.008Z,9.52
2023-05-05T04:11:05.712Z,9.51
2023-05-05T04:11:37.358Z,9.52
2023-05-05T04:12:09.060Z,9.48
2023-05-05T04:12:40.633Z,9.58
2023-05-05T04:13:12.524Z,9.50
2023-05-05T04:13:44.244Z,9.57
2023-05-05T04:14:16.379Z,9.58
2023-05-05T04:14:48.006Z,9.68
2023-05-05T04:15:19.687Z,9.65
2023-05-05T04:15:51.410Z,9.70
2023-05-05T04:16:23.275Z,9.65
2023-05-05T04:16:54.965Z,9.59
2023-05-05T04:17:26.651Z,9.62
2023-05-05T04:17:58.409Z,9.68
2023-05-05T04:18:30.025Z,9.61
2023-05-05T04:19:01.616Z,9.65
2023-05-05T04:19:33.853Z,9.55
2023-05-05T04:20:07.209Z,9.58
2023-05-05T04:20:39.056Z,9.62
2023-05-05T04:21:10.694Z,9.58
2023-05-05T04:21:42.598Z,9.54
2023-05-05T04:22:14.242Z,9.58
2023-05-05T04:22:46.141Z,9.44
2023-05-05T04:23:17.784Z,9.55
2023-05-05T04:23:49.429Z,9.57
2023-05-05T04:24:24.789Z,9.55
2023-05-05T04:24:56.480Z,9.50
2023-05-05T04:25:28.073Z,9.50
2023-05-05T04:25:59.713Z,9.55
2023-05-05T04:26:31.730Z,9.54
2023-05-05T04:27:03.451Z,9.59
2023-05-05T04:27:35.715Z,9.62
2023-05-05T04:28:07.353Z,9.67
2023-05-05T04:28:38.936Z,9.65
2023-05-05T04:29:10.991Z,9.72
2023-05-05T04:29:42.606Z,9.67
2023-05-05T04:30:15.053Z,9.68
2023-05-05T04:30:47.119Z,9.70
2023-05-05T04:31:18.832Z,9.74
2023-05-05T04:31:50.845Z,9.78
2023-05-05T04:32:22.698Z,9.82
2023-05-05T04:32:54.397Z,9.85
2023-05-05T04:33:26.217Z,9.86
2023-05-05T04:33:57.880Z,9.89
2023-05-05T04:34:29.516Z,9.91
2023-05-05T04:35:01.392Z,9.92
2023-05-05T04:35:33.123Z,10.05
2023-05-05T04:36:04.985Z,10.05
2023-05-05T04:36:36.749Z,10.12
2023-05-05T04:37:08.596Z,10.16
2023-05-05T04:37:40.221Z,10.19
2023-05-05T04:38:11.925Z,10.19
2023-05-05T04:38:43.533Z,10.23
2023-05-05T04:39:15.165Z,10.24
2023-05-05T04:39:46.933Z,10.29
2023-05-05T04:40:18.544Z,10.32
2023-05-05T04:40:50.164Z,10.33
2023-05-05T04:41:21.817Z,10.36
2023-05-05T04:41:53.436Z,10.34
2023-05-05T04:42:25.066Z,10.36
2023-05-05T04:42:56.641Z,10.40
2023-05-05T04:43:28.231Z,10.49
2023-05-05T04:43:59.799Z,10.56
2023-05-05T04:44:31.542Z,10.60
2023-05-05T04:45:03.277Z,10.61
2023-05-05T04:45:34.896Z,10.63
2023-05-05T04:46:06.609Z,10.68
2023-05-05T04:46:38.364Z,10.70
2023-05-05T04:47:11.477Z,10.68
2023-05-05T04:47:45.047Z,10.72
2023-05-05T04:48:16.673Z,10.80
2023-05-05T04:48:48.463Z,10.82
2023-05-05T04:49:20.126Z,10.90
2023-05-05T04:49:51.738Z,10.94
2023-05-05T04:50:23.360Z,10.94
2023-05-05T04:50:54.976Z,10.98
2023-05-05T04:51:27.751Z,11.00
2023-05-05T04:51:59.375Z,11.02
2023-05-05T04:52:31.042Z,11.07
2023-05-05T04:53:02.909Z,11.08
2023-05-05T04:53:34.524Z,11.07
2023-05-05T04:54:07.480Z,11.12
2023-05-05T04:54:39.109Z,11.16
2023-05-05T04:55:11.622Z,11.09
2023-05-05T04:55:43.300Z,11.09
2023-05-05T04:56:14.961Z,11.11
2023-05-05T04:56:46.726Z,11.04
2023-05-05T04:57:18.347Z,10.95
2023-05-05T04:57:49.931Z,11.01
2023-05-05T04:58:21.569Z,10.97
2023-05-05T04:58:53.170Z,11.00
2023-05-05T04:59:24.827Z,11.07
2023-05-05T04:59:56.533Z,11.15
2023-05-05T05:00:28.128Z,11.16
2023-05-05T05:00:59.746Z,11.21
2023-05-05T05:01:31.881Z,11.16
2023-05-05T05:02:03.588Z,11.19
2023-05-05T05:02:37.576Z,11.22
2023-05-05T05:03:10.722Z,11.25
2023-05-05T05:03:42.726Z,11.23
2023-05-05T05:04:18.474Z,11.23
2023-05-05T05:04:50.178Z,11.26
2023-05-05T05:05:21.942Z,11.28
2023-05-05T05:05:53.684Z,11.29
2023-05-05T05:06:25.379Z,11.36
2023-05-05T05:06:59.119Z,11.35
2023-05-05T05:07:31.053Z,11.36
2023-05-05T05:08:02.662Z,11.36
2023-05-05T05:08:34.272Z,11.42
2023-05-05T05:09:05.869Z,11.46
2023-05-05T05:09:37.829Z,11.47
2023-05-05T05:10:09.929Z,11.49
2023-05-05T05:10:42.309Z,11.56
2023-05-05T05:11:13.949Z,11.53
2023-05-05T05:11:45.562Z,11.53
2023-05-05T05:12:17.264Z,11.55
2023-05-05T05:12:49.123Z,11.59
2023-05-05T05:13:20.873Z,11.60
2023-05-05T05:13:53.225Z,11.66
2023-05-05T05:14:24.865Z,11.60
2023-05-05T05:14:56.591Z,11.66
2023-05-05T05:15:28.170Z,11.67
2023-05-05T05:16:00.883Z,11.63
2023-05-05T05:16:32.644Z,11.73
2023-05-05T05:17:04.676Z,11.76
2023-05-05T05:17:36.367Z,11.76
2023-05-05T05:18:08.043Z,11.81
2023-05-05T05:18:39.692Z,11.83
2023-05-05T05:19:11.369Z,11.76
2023-05-05T05:19:43.174Z,11.76
2023-05-05T05:20:14.805Z,11.63
2023-05-05T05:20:46.464Z,11.69
2023-05-05T05:21:18.103Z,11.71
2023-05-05T05:21:49.734Z,11.73
2023-05-05T05:22:21.490Z,11.74
2023-05-05T05:22:53.126Z,11.69
2023-05-05T05:23:24.721Z,11.73
2023-05-05T05:23:56.320Z,11.79
2023-05-05T05:24:27.972Z,11.84
2023-05-05T05:24:59.561Z,11.87
2023-05-05T05:25:31.253Z,11.90
2023-05-05T05:26:05.223Z,11.94
2023-05-05T05:26:36.870Z,11.97
2023-05-05T05:27:10.092Z,11.97
2023-05-05T05:27:42.366Z,12.00
2023-05-05T05:28:13.979Z,12.07
2023-05-05T05:28:45.732Z,12.02
2023-05-05T05:29:17.439Z,11.97
2023-05-05T05:29:49.012Z,12.04
2023-05-05T05:30:20.805Z,12.14
2023-05-05T05:30:52.864Z,12.14
2023-05-05T05:31:24.588Z,12.18
2023-05-05T05:31:56.206Z,12.29
2023-05-05T05:32:27.961Z,12.35
2023-05-05T05:32:59.580Z,12.37
2023-05-05T05:33:31.173Z,12.39
2023-05-05T05:34:02.779Z,12.42
2023-05-05T05:34:34.417Z,12.56
2023-05-05T05:35:06.654Z,12.58
2023-05-05T05:35:38.462Z,12.63
2023-05-05T05:36:10.100Z,12.62
2023-05-05T05:36:41.761Z,12.60
2023-05-05T05:37:13.380Z,12.65
2023-05-05T05:37:45.971Z,12.68
2023-05-05T05:38:17.966Z,12.66
2023-05-05T05:38:49.585Z,12.73
2023-05-05T05:39:21.840Z,12.70
2023-05-05T05:39:53.479Z,12.75
2023-05-05T05:40:25.184Z,12.79
2023-05-05T05:40:56.840Z,12.75
2023-05-05T05:41:28.502Z,12.89
2023-05-05T05:42:00.147Z,12.99
2023-05-05T05:42:31.872Z,13.02
2023-05-05T05:43:04.110Z,13.02
2023-05-05T05:43:36.003Z,13.06
2023-05-05T05:44:07.600Z,13.17
2023-05-05T05:44:39.208Z,13.24
2023-05-05T05:45:11.003Z,13.27
2023-05-05T05:45:42.850Z,13.27
2023-05-05T05:46:14.812Z,13.31
2023-05-05T05:46:46.536Z,13.44
2023-05-05T05:47:18.282Z,13.50
2023-05-05T05:47:50.480Z,13.50
2023-05-05T05:48:24.850Z,13.55
2023-05-05T05:48:56.582Z,13.65
2023-05-05T05:49:28.209Z,13.74
2023-05-05T05:49:59.833Z,13.90
2023-05-05T05:50:31.450Z,13.99
2023-05-05T05:51:03.211Z,14.01
2023-05-05T05:51:34.878Z,14.15
2023-05-05T05:52:06.502Z,14.22
2023-05-05T05:52:38.222Z,14.22
2023-05-05T05:53:09.790Z,14.24
2023-05-05T05:53:41.815Z,14.34
2023-05-05T05:54:13.521Z,14.40
2023-05-05T05:54:45.118Z,14.74
2023-05-05T05:55:16.851Z,14.78
2023-05-05T05:55:48.782Z,14.78
2023-05-05T05:56:20.365Z,14.84
2023-05-05T05:56:52.060Z,14.82
2023-05-05T05:57:24.631Z,15.06
2023-05-05T05:57:56.279Z,15.46
2023-05-05T05:58:27.869Z,15.36
2023-05-05T05:58:59.498Z,15.31
2023-05-05T05:59:31.207Z,15.69
2023-05-05T06:00:03.143Z,15.70
2023-05-05T06:00:34.714Z,15.49
2023-05-05T06:01:06.450Z,15.44
2023-05-05T06:01:38.154Z,15.29
2023-05-05T06:02:09.983Z,15.13
2023-05-05T06:02:41.960Z,15.12
2023-05-05T06:03:14.084Z,15.15
2023-05-05T06:03:46.083Z,15.22
2023-05-05T06:04:17.872Z,15.29
2023-05-05T06:04:49.535Z,15.36
2023-05-05T06:05:21.144Z,15.38
2023-05-05T06:05:52.734Z,15.42
2023-05-05T06:06:24.400Z,15.47
2023-05-05T06:06:56.139Z,15.46
2023-05-05T06:07:27.826Z,15.35
2023-05-05T06:07:59.609Z,15.35
2023-05-05T06:08:31.369Z,15.26
2023-05-05T06:09:03.029Z,15.32
2023-05-05T06:09:34.641Z,15.38
2023-05-05T06:10:22.674Z,15.43
2023-05-05T06:10:57.107Z,15.47
2023-05-05T06:11:28.709Z,15.49
2023-05-05T06:12:00.361Z,15.66
2023-05-05T06:12:32.111Z,15.69
2023-05-05T06:13:03.862Z,15.80
2023-05-05T06:13:35.518Z,15.89
2023-05-05T06:14:07.164Z,15.89
2023-05-05T06:14:38.808Z,15.90
2023-05-05T06:15:10.965Z,15.94
2023-05-05T06:15:42.576Z,15.93
2023-05-05T06:16:14.180Z,15.93
2023-05-05T06:16:45.940Z,16.01
2023-05-05T06:17:17.611Z,16.12
2023-05-05T06:17:49.245Z,16.12
2023-05-05T06:18:20.893Z,16.11
2023-05-05T06:18:52.632Z,16.05
2023-05-05T06:19:24.273Z,16.08
2023-05-05T06:19:56.039Z,16.07
2023-05-05T06:20:27.652Z,16.05
2023-05-05T06:21:00.280Z,16.05
2023-05-05T06:21:31.895Z,16.02
2023-05-05T06:22:03.509Z,16.07
2023-05-05T06:22:35.085Z,16.12
2023-05-05T06:23:07.086Z,16.00
2023-05-05T06:23:39.201Z,16.00
2023-05-05T06:24:10.850Z,15.98
2023-05-05T06:24:42.528Z,15.93
2023-05-05T06:25:14.146Z,15.83
2023-05-05T06:25:45.820Z,15.94
2023-05-05T06:26:17.505Z,15.64
2023-05-05T06:26:49.118Z,15.69
2023-05-05T06:27:20.784Z,15.84
2023-05-05T06:27:52.405Z,15.98
2023-05-05T06:28:24.124Z,15.94
2023-05-05T06:28:55.960Z,15.91
2023-05-05T06:29:30.002Z,15.98
2023-05-05T06:30:01.750Z,15.98
2023-05-05T06:30:33.831Z,16.00
2023-05-05T06:31:05.815Z,16.18
2023-05-05T06:31:37.505Z,16.21
2023-05-05T06:32:09.197Z,16.33
2023-05-05T06:32:40.892Z,16.49
2023-05-05T06:33:12.505Z,16.45
2023-05-05T06:33:44.132Z,16.47
2023-05-05T06:34:15.863Z,16.45
2023-05-05T06:34:48.373Z,16.41
2023-05-05T06:35:22.104Z,16.45
2023-05-05T06:35:54.397Z,16.49
2023-05-05T06:36:26.391Z,16.52
2023-05-05T06:36:58.032Z,16.41
2023-05-05T06:37:29.605Z,16.44
2023-05-05T06:38:01.235Z,16.48
2023-05-05T06:38:32.863Z,16.49
2023-05-05T06:39:04.637Z,16.49
2023-05-05T06:39:36.423Z,16.41
2023-05-05T06:40:09.375Z,16.45
2023-05-05T06:40:41.280Z,16.51
2023-05-05T06:41:12.956Z,16.45
2023-05-05T06:41:44.568Z,16.47
2023-05-05T06:42:16.381Z,16.48
2023-05-05T06:42:48.057Z,16.51
2023-05-05T06:43:19.880Z,16.49
2023-05-05T06:43:51.557Z,16.39
2023-05-05T06:44:23.170Z,16.38
2023-05-05T06:44:54.783Z,16.39
2023-05-05T06:45:26.695Z,16.45
2023-05-05T06:45:58.302Z,16.51
2023-05-05T06:46:30.028Z,16.51
2023-05-05T06:47:01.832Z,16.51
2023-05-05T06:47:33.570Z,16.41
2023-05-05T06:48:05.250Z,16.49
2023-05-05T06:48:37.049Z,16.48
2023-05-05T06:49:08.645Z,16.51
2023-05-05T06:49:40.258Z,16.58
2023-05-05T06:50:11.996Z,16.68
2023-05-05T06:50:43.636Z,16.70
2023-05-05T06:51:15.655Z,16.79
2023-05-05T06:51:47.310Z,16.76
2023-05-05T06:52:19.020Z,16.70
2023-05-05T06:52:50.753Z,16.73
2023-05-05T06:53:22.368Z,16.80
2023-05-05T06:53:53.925Z,16.81
2023-05-05T06:54:25.778Z,16.79
2023-05-05T06:54:57.462Z,16.91
2023-05-05T06:55:29.112Z,16.86
2023-05-05T06:56:00.816Z,16.89
2023-05-05T06:56:32.402Z,16.87
2023-05-05T06:57:04.019Z,16.97
2023-05-05T06:57:35.873Z,16.91
2023-05-05T06:58:07.475Z,16.91
2023-05-05T06:58:39.086Z,16.90
2023-05-05T06:59:10.918Z,16.65
2023-05-05T06:59:42.499Z,16.79
2023-05-05T07:00:15.200Z,16.81
2023-05-05T07:00:47.237Z,16.86
2023-05-05T07:01:19.143Z,16.81
2023-05-05T07:01:51.853Z,16.84
2023-05-05T07:02:25.279Z,16.94
2023-05-05T07:02:58.299Z,17.06
2023-05-05T07:03:30.131Z,17.17
2023-05-05T07:04:01.944Z,17.10
2023-05-05T07:04:33.625Z,17.03
2023-05-05T07:05:05.665Z,17.07
2023-05-05T07:05:37.632Z,17.10
2023-05-05T07:06:09.359Z,17.11
2023-05-05T07:06:41.207Z,17.18
2023-05-05T07:07:12.883Z,17.17
2023-05-05T07:07:54.878Z,17.27
2023-05-05T07:08:26.446Z,17.30
2023-05-05T07:08:58.216Z,17.34
2023-05-05T07:09:29.965Z,17.35
2023-05-05T07:10:01.779Z,17.45
2023-05-05T07:10:33.375Z,17.44
2023-05-05T07:11:05.030Z,17.55
2023-05-05T07:11:37.801Z,17.64
2023-05-05T07:12:09.422Z,17.76
2023-05-05T07:12:41.118Z,17.79
2023-05-05T07:13:13.173Z,17.79
2023-05-05T07:13:44.757Z,17.48
2023-05-05T07:14:16.416Z,17.49
2023-05-05T07:14:48.071Z,17.54
2023-05-05T07:15:27.556Z,17.48
2023-05-05T07:16:01.097Z,17.61
2023-05-05T07:16:34.804Z,17.74